sensor_id;sensor_type;location;lat;lon;timestamp;P1;durP1;ratioP1;P2;durP2;ratioP2
49376;SDS011;35253;34.688;33.040;2023-09-12T00:00:45;13.90;;;11.55;;
49376;SDS011;35253;34.688;33.040;2023-09-12T00:03:11;14.35;;;12.90;;
49376;SDS011;35253;34.688;33.040;2023-09-12T00:05:36;15.38;;;12.75;;
49376;SDS011;35253;34.688;33.040;2023-09-12T00:08:02;13.50;;;12.07;;
49376;SDS011;35253;34.688;33.040;2023-09-12T00:10:28;13.45;;;12.07;;
49376;SDS011;35253;34.688;33.040;2023-09-12T00:12:54;16.58;;;12.35;;
49376;SDS011;35253;34.688;33.040;2023-09-12T00:15:20;25.27;;;14.35;;
49376;SDS011;35253;34.688;33.040;2023-09-12T00:17:46;16.33;;;13.27;;
49376;SDS011;35253;34.688;33.040;2023-09-12T00:20:13;19.80;;;13.25;;
49376;SDS011;35253;34.688;33.040;2023-09-12T00:22:39;17.85;;;13.55;;
49376;SDS011;35253;34.688;33.040;2023-09-12T00:25:05;16.35;;;13.07;;
49376;SDS011;35253;34.688;33.040;2023-09-12T00:27:31;15.05;;;12.52;;
49376;SDS011;35253;34.688;33.040;2023-09-12T00:29:56;21.80;;;13.10;;
49376;SDS011;35253;34.688;33.040;2023-09-12T00:32:22;14.73;;;12.55;;
49376;SDS011;35253;34.688;33.040;2023-09-12T00:34:48;12.68;;;11.38;;
49376;SDS011;35253;34.688;33.040;2023-09-12T00:37:13;13.88;;;11.73;;
49376;SDS011;35253;34.688;33.040;2023-09-12T00:39:39;16.83;;;12.18;;
49376;SDS011;35253;34.688;33.040;2023-09-12T00:42:04;15.15;;;12.15;;
49376;SDS011;35253;34.688;33.040;2023-09-12T00:44:32;21.77;;;12.18;;
49376;SDS011;35253;34.688;33.040;2023-09-12T00:46:58;14.27;;;11.43;;
49376;SDS011;35253;34.688;33.040;2023-09-12T00:49:26;17.73;;;11.38;;
49376;SDS011;35253;34.688;33.040;2023-09-12T00:51:54;13.98;;;12.13;;
49376;SDS011;35253;34.688;33.040;2023-09-12T00:54:21;17.67;;;10.63;;
49376;SDS011;35253;34.688;33.040;2023-09-12T00:56:47;16.55;;;11.13;;
49376;SDS011;35253;34.688;33.040;2023-09-12T00:59:13;13.50;;;11.52;;
49376;SDS011;35253;34.688;33.040;2023-09-12T01:01:42;16.98;;;10.07;;
49376;SDS011;35253;34.688;33.040;2023-09-12T01:04:09;14.02;;;11.70;;
49376;SDS011;35253;34.688;33.040;2023-09-12T01:06:35;12.23;;;10.35;;
49376;SDS011;35253;34.688;33.040;2023-09-12T01:09:02;19.80;;;10.27;;
49376;SDS011;35253;34.688;33.040;2023-09-12T01:11:28;14.48;;;12.95;;
49376;SDS011;35253;34.688;33.040;2023-09-12T01:13:55;11.57;;;10.38;;
49376;SDS011;35253;34.688;33.040;2023-09-12T01:16:20;12.70;;;10.93;;
49376;SDS011;35253;34.688;33.040;2023-09-12T01:18:46;12.35;;;11.05;;
49376;SDS011;35253;34.688;33.040;2023-09-12T01:24:07;15.20;;;9.95;;
49376;SDS011;35253;34.688;33.040;2023-09-12T01:26:41;12.65;;;10.55;;
49376;SDS011;35253;34.688;33.040;2023-09-12T01:29:28;11.80;;;9.90;;
49376;SDS011;35253;34.688;33.040;2023-09-12T01:31:56;14.38;;;10.20;;
49376;SDS011;35253;34.688;33.040;2023-09-12T01:34:23;15.55;;;10.27;;
49376;SDS011;35253;34.688;33.040;2023-09-12T01:36:50;10.27;;;9.18;;
49376;SDS011;35253;34.688;33.040;2023-09-12T01:39:16;12.85;;;10.80;;
49376;SDS011;35253;34.688;33.040;2023-09-12T01:41:42;11.45;;;9.60;;
49376;SDS011;35253;34.688;33.040;2023-09-12T01:44:12;12.85;;;8.90;;
49376;SDS011;35253;34.688;33.040;2023-09-12T01:46:40;10.75;;;9.18;;
49376;SDS011;35253;34.688;33.040;2023-09-12T01:49:07;10.75;;;8.98;;
49376;SDS011;35253;34.688;33.040;2023-09-12T01:51:35;13.65;;;10.15;;
49376;SDS011;35253;34.688;33.040;2023-09-12T01:54:01;13.60;;;9.38;;
49376;SDS011;35253;34.688;33.040;2023-09-12T01:56:28;11.40;;;10.15;;
49376;SDS011;35253;34.688;33.040;2023-09-12T01:58:55;22.88;;;10.80;;
49376;SDS011;35253;34.688;33.040;2023-09-12T02:01:21;10.60;;;8.95;;
49376;SDS011;35253;34.688;33.040;2023-09-12T02:03:47;10.38;;;9.35;;
49376;SDS011;35253;34.688;33.040;2023-09-12T02:06:13;11.35;;;9.93;;
49376;SDS011;35253;34.688;33.040;2023-09-12T02:08:38;12.60;;;8.73;;
49376;SDS011;35253;34.688;33.040;2023-09-12T02:11:04;12.55;;;10.02;;
49376;SDS011;35253;34.688;33.040;2023-09-12T02:13:29;20.10;;;10.32;;
49376;SDS011;35253;34.688;33.040;2023-09-12T02:15:58;12.82;;;9.65;;
49376;SDS011;35253;34.688;33.040;2023-09-12T02:20:50;19.60;;;9.07;;
49376;SDS011;35253;34.688;33.040;2023-09-12T02:23:16;11.18;;;9.98;;
49376;SDS011;35253;34.688;33.040;2023-09-12T02:25:41;9.27;;;8.23;;
49376;SDS011;35253;34.688;33.040;2023-09-12T02:28:07;16.02;;;9.52;;
49376;SDS011;35253;34.688;33.040;2023-09-12T02:30:33;12.88;;;10.57;;
49376;SDS011;35253;34.688;33.040;2023-09-12T02:32:58;14.57;;;9.70;;
49376;SDS011;35253;34.688;33.040;2023-09-12T02:35:24;9.60;;;8.70;;
49376;SDS011;35253;34.688;33.040;2023-09-12T02:37:49;12.93;;;8.95;;
49376;SDS011;35253;34.688;33.040;2023-09-12T02:40:15;14.85;;;10.15;;
49376;SDS011;35253;34.688;33.040;2023-09-12T02:42:43;16.55;;;9.05;;
49376;SDS011;35253;34.688;33.040;2023-09-12T02:45:08;13.00;;;8.50;;
49376;SDS011;35253;34.688;33.040;2023-09-12T02:47:35;15.13;;;8.95;;
49376;SDS011;35253;34.688;33.040;2023-09-12T02:50:00;12.02;;;8.93;;
49376;SDS011;35253;34.688;33.040;2023-09-12T02:52:26;11.05;;;9.23;;
49376;SDS011;35253;34.688;33.040;2023-09-12T02:54:52;12.18;;;9.25;;
49376;SDS011;35253;34.688;33.040;2023-09-12T02:57:17;11.85;;;8.80;;
49376;SDS011;35253;34.688;33.040;2023-09-12T02:59:43;17.00;;;10.40;;
49376;SDS011;35253;34.688;33.040;2023-09-12T03:02:08;13.43;;;9.07;;
49376;SDS011;35253;34.688;33.040;2023-09-12T03:04:34;10.73;;;8.98;;
49376;SDS011;35253;34.688;33.040;2023-09-12T03:07:01;16.30;;;8.88;;
49376;SDS011;35253;34.688;33.040;2023-09-12T03:09:26;11.13;;;8.75;;
49376;SDS011;35253;34.688;33.040;2023-09-12T03:11:52;13.80;;;8.75;;
49376;SDS011;35253;34.688;33.040;2023-09-12T03:14:17;10.77;;;8.60;;
49376;SDS011;35253;34.688;33.040;2023-09-12T03:16:43;11.18;;;10.05;;
49376;SDS011;35253;34.688;33.040;2023-09-12T03:19:09;10.07;;;7.97;;
49376;SDS011;35253;34.688;33.040;2023-09-12T03:21:34;11.75;;;8.82;;
49376;SDS011;35253;34.688;33.040;2023-09-12T03:24:00;10.13;;;8.20;;
49376;SDS011;35253;34.688;33.040;2023-09-12T03:26:26;13.30;;;8.77;;
49376;SDS011;35253;34.688;33.040;2023-09-12T03:28:51;16.38;;;8.15;;
49376;SDS011;35253;34.688;33.040;2023-09-12T03:31:17;9.10;;;7.72;;
49376;SDS011;35253;34.688;33.040;2023-09-12T03:33:43;14.80;;;8.32;;
49376;SDS011;35253;34.688;33.040;2023-09-12T03:36:15;14.18;;;8.25;;
49376;SDS011;35253;34.688;33.040;2023-09-12T03:38:42;9.98;;;6.70;;
49376;SDS011;35253;34.688;33.040;2023-09-12T03:41:08;10.25;;;7.63;;
49376;SDS011;35253;34.688;33.040;2023-09-12T03:43:33;11.68;;;8.27;;
49376;SDS011;35253;34.688;33.040;2023-09-12T03:45:59;8.10;;;6.95;;
49376;SDS011;35253;34.688;33.040;2023-09-12T03:48:25;10.48;;;7.50;;
49376;SDS011;35253;34.688;33.040;2023-09-12T03:50:51;9.70;;;7.57;;
49376;SDS011;35253;34.688;33.040;2023-09-12T03:53:17;13.30;;;8.23;;
49376;SDS011;35253;34.688;33.040;2023-09-12T03:55:42;11.45;;;7.75;;
49376;SDS011;35253;34.688;33.040;2023-09-12T03:58:08;11.52;;;7.07;;
49376;SDS011;35253;34.688;33.040;2023-09-12T04:00:34;15.85;;;8.43;;
49376;SDS011;35253;34.688;33.040;2023-09-12T04:02:59;7.40;;;6.43;;
49376;SDS011;35253;34.688;33.040;2023-09-12T04:05:25;22.90;;;9.23;;
49376;SDS011;35253;34.688;33.040;2023-09-12T04:07:51;10.40;;;6.68;;
49376;SDS011;35253;34.688;33.040;2023-09-12T04:10:20;14.65;;;7.78;;
49376;SDS011;35253;34.688;33.040;2023-09-12T04:12:46;14.10;;;8.10;;
49376;SDS011;35253;34.688;33.040;2023-09-12T04:15:12;20.58;;;6.57;;
49376;SDS011;35253;34.688;33.040;2023-09-12T04:17:38;13.98;;;6.15;;
49376;SDS011;35253;34.688;33.040;2023-09-12T04:20:03;12.25;;;6.55;;
49376;SDS011;35253;34.688;33.040;2023-09-12T04:22:30;14.73;;;6.47;;
49376;SDS011;35253;34.688;33.040;2023-09-12T04:24:55;11.38;;;6.65;;
49376;SDS011;35253;34.688;33.040;2023-09-12T04:27:21;17.63;;;6.90;;
49376;SDS011;35253;34.688;33.040;2023-09-12T04:29:47;12.07;;;6.63;;
49376;SDS011;35253;34.688;33.040;2023-09-12T04:32:12;10.93;;;6.05;;
49376;SDS011;35253;34.688;33.040;2023-09-12T04:34:38;12.48;;;5.45;;
49376;SDS011;35253;34.688;33.040;2023-09-12T04:37:03;12.85;;;5.63;;
49376;SDS011;35253;34.688;33.040;2023-09-12T04:39:30;10.95;;;4.88;;
49376;SDS011;35253;34.688;33.040;2023-09-12T04:41:56;9.00;;;4.65;;
49376;SDS011;35253;34.688;33.040;2023-09-12T04:44:22;9.95;;;5.05;;
49376;SDS011;35253;34.688;33.040;2023-09-12T04:46:48;12.43;;;5.35;;
49376;SDS011;35253;34.688;33.040;2023-09-12T04:49:13;13.70;;;5.15;;
49376;SDS011;35253;34.688;33.040;2023-09-12T04:51:39;17.80;;;7.18;;
49376;SDS011;35253;34.688;33.040;2023-09-12T04:54:05;13.65;;;5.38;;
49376;SDS011;35253;34.688;33.040;2023-09-12T04:56:31;12.25;;;5.97;;
49376;SDS011;35253;34.688;33.040;2023-09-12T04:58:56;10.63;;;4.00;;
49376;SDS011;35253;34.688;33.040;2023-09-12T05:01:22;10.60;;;4.93;;
49376;SDS011;35253;34.688;33.040;2023-09-12T05:03:47;9.35;;;5.10;;
49376;SDS011;35253;34.688;33.040;2023-09-12T05:06:13;16.25;;;5.95;;
49376;SDS011;35253;34.688;33.040;2023-09-12T05:08:39;15.75;;;5.45;;
49376;SDS011;35253;34.688;33.040;2023-09-12T05:11:05;16.50;;;7.20;;
49376;SDS011;35253;34.688;33.040;2023-09-12T05:13:30;17.10;;;5.57;;
49376;SDS011;35253;34.688;33.040;2023-09-12T05:15:56;12.93;;;5.13;;
49376;SDS011;35253;34.688;33.040;2023-09-12T05:18:22;17.70;;;5.63;;
49376;SDS011;35253;34.688;33.040;2023-09-12T05:20:48;14.75;;;6.25;;
49376;SDS011;35253;34.688;33.040;2023-09-12T05:23:14;13.40;;;5.22;;
49376;SDS011;35253;34.688;33.040;2023-09-12T05:25:40;13.25;;;4.35;;
49376;SDS011;35253;34.688;33.040;2023-09-12T05:28:06;15.15;;;4.63;;
49376;SDS011;35253;34.688;33.040;2023-09-12T05:30:32;13.77;;;4.47;;
49376;SDS011;35253;34.688;33.040;2023-09-12T05:32:58;15.38;;;5.05;;
49376;SDS011;35253;34.688;33.040;2023-09-12T05:35:23;9.30;;;4.80;;
49376;SDS011;35253;34.688;33.040;2023-09-12T05:37:50;15.73;;;4.95;;
49376;SDS011;35253;34.688;33.040;2023-09-12T05:40:16;29.10;;;7.45;;
49376;SDS011;35253;34.688;33.040;2023-09-12T05:42:42;12.55;;;4.45;;
49376;SDS011;35253;34.688;33.040;2023-09-12T05:45:08;13.55;;;4.95;;
49376;SDS011;35253;34.688;33.040;2023-09-12T05:47:34;19.40;;;5.50;;
49376;SDS011;35253;34.688;33.040;2023-09-12T05:50:00;16.75;;;4.63;;
49376;SDS011;35253;34.688;33.040;2023-09-12T05:52:26;21.15;;;5.50;;
49376;SDS011;35253;34.688;33.040;2023-09-12T05:54:51;13.88;;;5.22;;
49376;SDS011;35253;34.688;33.040;2023-09-12T05:57:17;18.80;;;6.72;;
49376;SDS011;35253;34.688;33.040;2023-09-12T05:59:43;35.10;;;10.50;;
49376;SDS011;35253;34.688;33.040;2023-09-12T06:02:08;29.55;;;8.60;;
49376;SDS011;35253;34.688;33.040;2023-09-12T06:04:35;25.30;;;7.35;;
49376;SDS011;35253;34.688;33.040;2023-09-12T06:07:03;20.27;;;6.95;;
49376;SDS011;35253;34.688;33.040;2023-09-12T06:09:29;21.55;;;6.78;;
49376;SDS011;35253;34.688;33.040;2023-09-12T06:11:55;20.30;;;6.57;;
49376;SDS011;35253;34.688;33.040;2023-09-12T06:14:21;19.60;;;8.18;;
49376;SDS011;35253;34.688;33.040;2023-09-12T06:16:47;21.02;;;7.35;;
49376;SDS011;35253;34.688;33.040;2023-09-12T06:19:12;13.30;;;5.00;;
49376;SDS011;35253;34.688;33.040;2023-09-12T06:21:40;15.75;;;4.70;;
49376;SDS011;35253;34.688;33.040;2023-09-12T06:24:19;10.07;;;4.30;;
49376;SDS011;35253;34.688;33.040;2023-09-12T06:26:48;14.13;;;4.60;;
49376;SDS011;35253;34.688;33.040;2023-09-12T06:29:14;16.73;;;4.97;;
49376;SDS011;35253;34.688;33.040;2023-09-12T06:31:40;24.45;;;6.70;;
49376;SDS011;35253;34.688;33.040;2023-09-12T06:34:06;17.55;;;6.85;;
49376;SDS011;35253;34.688;33.040;2023-09-12T06:36:35;22.50;;;6.80;;
49376;SDS011;35253;34.688;33.040;2023-09-12T06:39:01;19.80;;;5.38;;
49376;SDS011;35253;34.688;33.040;2023-09-12T06:41:27;14.18;;;5.22;;
49376;SDS011;35253;34.688;33.040;2023-09-12T06:43:52;17.15;;;4.80;;
49376;SDS011;35253;34.688;33.040;2023-09-12T06:46:18;12.57;;;4.18;;
49376;SDS011;35253;34.688;33.040;2023-09-12T06:48:45;17.85;;;5.10;;
49376;SDS011;35253;34.688;33.040;2023-09-12T06:51:11;26.00;;;5.43;;
49376;SDS011;35253;34.688;33.040;2023-09-12T06:53:38;19.90;;;6.28;;
49376;SDS011;35253;34.688;33.040;2023-09-12T06:56:04;12.40;;;4.32;;
49376;SDS011;35253;34.688;33.040;2023-09-12T06:58:30;17.52;;;4.60;;
49376;SDS011;35253;34.688;33.040;2023-09-12T07:00:55;13.90;;;5.55;;
49376;SDS011;35253;34.688;33.040;2023-09-12T07:03:21;20.13;;;5.43;;
49376;SDS011;35253;34.688;33.040;2023-09-12T07:05:47;15.10;;;6.00;;
49376;SDS011;35253;34.688;33.040;2023-09-12T07:08:14;29.50;;;6.82;;
49376;SDS011;35253;34.688;33.040;2023-09-12T07:10:45;25.50;;;5.10;;
49376;SDS011;35253;34.688;33.040;2023-09-12T07:13:11;27.17;;;6.30;;
49376;SDS011;35253;34.688;33.040;2023-09-12T07:15:37;12.88;;;4.90;;
49376;SDS011;35253;34.688;33.040;2023-09-12T07:18:03;25.10;;;4.90;;
49376;SDS011;35253;34.688;33.040;2023-09-12T07:20:31;31.23;;;5.20;;
49376;SDS011;35253;34.688;33.040;2023-09-12T07:23:00;24.83;;;5.32;;
49376;SDS011;35253;34.688;33.040;2023-09-12T07:25:25;25.08;;;7.10;;
49376;SDS011;35253;34.688;33.040;2023-09-12T07:27:51;29.00;;;4.88;;
49376;SDS011;35253;34.688;33.040;2023-09-12T07:30:17;25.85;;;4.97;;
49376;SDS011;35253;34.688;33.040;2023-09-12T07:32:43;24.63;;;5.88;;
49376;SDS011;35253;34.688;33.040;2023-09-12T07:35:09;25.15;;;4.68;;
49376;SDS011;35253;34.688;33.040;2023-09-12T07:37:35;37.63;;;12.73;;
49376;SDS011;35253;34.688;33.040;2023-09-12T07:40:00;44.97;;;11.32;;
49376;SDS011;35253;34.688;33.040;2023-09-12T07:42:27;29.23;;;7.55;;
49376;SDS011;35253;34.688;33.040;2023-09-12T07:44:52;42.30;;;10.32;;
49376;SDS011;35253;34.688;33.040;2023-09-12T07:47:18;39.35;;;8.15;;
49376;SDS011;35253;34.688;33.040;2023-09-12T07:49:44;39.10;;;9.80;;
49376;SDS011;35253;34.688;33.040;2023-09-12T07:52:10;35.65;;;8.38;;
49376;SDS011;35253;34.688;33.040;2023-09-12T07:54:35;33.38;;;7.25;;
49376;SDS011;35253;34.688;33.040;2023-09-12T07:57:02;24.00;;;7.38;;
49376;SDS011;35253;34.688;33.040;2023-09-12T07:59:28;30.48;;;6.90;;
49376;SDS011;35253;34.688;33.040;2023-09-12T08:01:53;28.65;;;7.47;;
49376;SDS011;35253;34.688;33.040;2023-09-12T08:04:19;33.35;;;6.97;;
49376;SDS011;35253;34.688;33.040;2023-09-12T08:06:45;22.48;;;7.25;;
49376;SDS011;35253;34.688;33.040;2023-09-12T08:09:11;36.25;;;7.15;;
49376;SDS011;35253;34.688;33.040;2023-09-12T08:11:36;34.80;;;6.97;;
49376;SDS011;35253;34.688;33.040;2023-09-12T08:14:02;20.58;;;6.07;;
49376;SDS011;35253;34.688;33.040;2023-09-12T08:16:28;27.10;;;5.90;;
49376;SDS011;35253;34.688;33.040;2023-09-12T08:18:53;21.30;;;6.03;;
49376;SDS011;35253;34.688;33.040;2023-09-12T08:21:19;19.48;;;6.00;;
49376;SDS011;35253;34.688;33.040;2023-09-12T08:23:45;25.33;;;6.05;;
49376;SDS011;35253;34.688;33.040;2023-09-12T08:26:10;23.17;;;7.20;;
49376;SDS011;35253;34.688;33.040;2023-09-12T08:28:36;24.98;;;7.25;;
49376;SDS011;35253;34.688;33.040;2023-09-12T08:31:02;20.92;;;6.82;;
49376;SDS011;35253;34.688;33.040;2023-09-12T08:33:27;32.58;;;7.07;;
49376;SDS011;35253;34.688;33.040;2023-09-12T08:35:53;31.35;;;7.70;;
49376;SDS011;35253;34.688;33.040;2023-09-12T08:38:19;21.58;;;6.22;;
49376;SDS011;35253;34.688;33.040;2023-09-12T08:40:51;19.30;;;6.18;;
49376;SDS011;35253;34.688;33.040;2023-09-12T08:43:16;23.88;;;7.00;;
49376;SDS011;35253;34.688;33.040;2023-09-12T08:45:42;36.70;;;7.25;;
49376;SDS011;35253;34.688;33.040;2023-09-12T08:48:11;33.20;;;7.50;;
49376;SDS011;35253;34.688;33.040;2023-09-12T08:50:38;22.67;;;6.10;;
49376;SDS011;35253;34.688;33.040;2023-09-12T08:53:04;27.08;;;6.28;;
49376;SDS011;35253;34.688;33.040;2023-09-12T08:55:33;25.23;;;5.13;;
49376;SDS011;35253;34.688;33.040;2023-09-12T08:58:03;29.15;;;6.10;;
49376;SDS011;35253;34.688;33.040;2023-09-12T09:00:30;29.42;;;8.20;;
49376;SDS011;35253;34.688;33.040;2023-09-12T09:02:56;27.67;;;7.30;;
49376;SDS011;35253;34.688;33.040;2023-09-12T09:05:22;33.20;;;7.25;;
49376;SDS011;35253;34.688;33.040;2023-09-12T09:07:49;31.65;;;6.40;;
49376;SDS011;35253;34.688;33.040;2023-09-12T09:10:17;24.63;;;7.70;;
49376;SDS011;35253;34.688;33.040;2023-09-12T09:12:44;18.40;;;5.25;;
49376;SDS011;35253;34.688;33.040;2023-09-12T09:15:24;24.73;;;7.75;;
49376;SDS011;35253;34.688;33.040;2023-09-12T09:17:52;31.83;;;6.80;;
49376;SDS011;35253;34.688;33.040;2023-09-12T09:20:37;20.98;;;4.97;;
49376;SDS011;35253;34.688;33.040;2023-09-12T09:23:07;21.77;;;5.50;;
49376;SDS011;35253;34.688;33.040;2023-09-12T09:25:39;24.80;;;5.63;;
49376;SDS011;35253;34.688;33.040;2023-09-12T09:30:43;29.40;;;8.05;;
49376;SDS011;35253;34.688;33.040;2023-09-12T09:33:10;33.55;;;7.18;;
49376;SDS011;35253;34.688;33.040;2023-09-12T09:35:37;31.17;;;7.13;;
49376;SDS011;35253;34.688;33.040;2023-09-12T09:38:06;26.00;;;6.72;;
49376;SDS011;35253;34.688;33.040;2023-09-12T09:40:33;32.97;;;14.45;;
49376;SDS011;35253;34.688;33.040;2023-09-12T09:42:59;28.65;;;8.68;;
49376;SDS011;35253;34.688;33.040;2023-09-12T09:45:29;23.08;;;6.47;;
49376;SDS011;35253;34.688;33.040;2023-09-12T09:48:05;24.48;;;7.28;;
49376;SDS011;35253;34.688;33.040;2023-09-12T09:50:34;25.70;;;8.13;;
49376;SDS011;35253;34.688;33.040;2023-09-12T09:53:03;34.47;;;11.05;;
49376;SDS011;35253;34.688;33.040;2023-09-12T09:55:33;31.50;;;11.80;;
49376;SDS011;35253;34.688;33.040;2023-09-12T09:57:59;22.63;;;7.88;;
49376;SDS011;35253;34.688;33.040;2023-09-12T10:00:25;33.03;;;8.60;;
49376;SDS011;35253;34.688;33.040;2023-09-12T10:02:54;37.88;;;11.27;;
49376;SDS011;35253;34.688;33.040;2023-09-12T10:05:21;23.83;;;8.88;;
49376;SDS011;35253;34.688;33.040;2023-09-12T10:07:51;23.40;;;5.95;;
49376;SDS011;35253;34.688;33.040;2023-09-12T10:10:18;23.25;;;5.20;;
49376;SDS011;35253;34.688;33.040;2023-09-12T10:12:55;22.92;;;5.70;;
49376;SDS011;35253;34.688;33.040;2023-09-12T10:15:22;28.25;;;5.80;;
49376;SDS011;35253;34.688;33.040;2023-09-12T10:17:54;16.92;;;3.97;;
49376;SDS011;35253;34.688;33.040;2023-09-12T10:20:24;13.40;;;3.35;;
49376;SDS011;35253;34.688;33.040;2023-09-12T10:25:36;11.90;;;3.47;;
49376;SDS011;35253;34.688;33.040;2023-09-12T10:28:03;19.05;;;6.82;;
49376;SDS011;35253;34.688;33.040;2023-09-12T10:30:30;15.88;;;4.95;;
49376;SDS011;35253;34.688;33.040;2023-09-12T10:32:57;13.73;;;5.90;;
49376;SDS011;35253;34.688;33.040;2023-09-12T10:35:24;33.67;;;12.85;;
49376;SDS011;35253;34.688;33.040;2023-09-12T10:37:49;21.33;;;6.30;;
49376;SDS011;35253;34.688;33.040;2023-09-12T10:40:16;14.82;;;4.68;;
49376;SDS011;35253;34.688;33.040;2023-09-12T10:42:42;23.30;;;5.50;;
49376;SDS011;35253;34.688;33.040;2023-09-12T10:45:09;23.38;;;10.80;;
49376;SDS011;35253;34.688;33.040;2023-09-12T10:47:36;23.35;;;8.10;;
49376;SDS011;35253;34.688;33.040;2023-09-12T10:50:02;21.38;;;10.57;;
49376;SDS011;35253;34.688;33.040;2023-09-12T10:52:28;40.75;;;12.30;;
49376;SDS011;35253;34.688;33.040;2023-09-12T10:54:55;19.40;;;6.85;;
49376;SDS011;35253;34.688;33.040;2023-09-12T10:57:21;29.48;;;5.40;;
49376;SDS011;35253;34.688;33.040;2023-09-12T11:02:36;41.90;;;18.48;;
49376;SDS011;35253;34.688;33.040;2023-09-12T11:05:04;22.98;;;7.30;;
49376;SDS011;35253;34.688;33.040;2023-09-12T11:07:50;22.10;;;6.43;;
49376;SDS011;35253;34.688;33.040;2023-09-12T11:10:17;35.70;;;11.70;;
49376;SDS011;35253;34.688;33.040;2023-09-12T11:12:55;24.95;;;6.43;;
49376;SDS011;35253;34.688;33.040;2023-09-12T11:15:25;14.93;;;5.82;;
49376;SDS011;35253;34.688;33.040;2023-09-12T11:18:04;19.23;;;5.75;;
49376;SDS011;35253;34.688;33.040;2023-09-12T11:20:50;21.35;;;8.80;;
49376;SDS011;35253;34.688;33.040;2023-09-12T11:23:28;15.43;;;5.85;;
49376;SDS011;35253;34.688;33.040;2023-09-12T11:26:03;22.83;;;6.97;;
49376;SDS011;35253;34.688;33.040;2023-09-12T11:28:32;23.70;;;9.82;;
49376;SDS011;35253;34.688;33.040;2023-09-12T11:30:58;17.73;;;6.38;;
49376;SDS011;35253;34.688;33.040;2023-09-12T11:33:26;17.70;;;6.07;;
49376;SDS011;35253;34.688;33.040;2023-09-12T11:35:53;17.38;;;8.02;;
49376;SDS011;35253;34.688;33.040;2023-09-12T11:38:26;26.90;;;9.48;;
49376;SDS011;35253;34.688;33.040;2023-09-12T11:40:54;12.88;;;5.85;;
49376;SDS011;35253;34.688;33.040;2023-09-12T11:43:24;20.27;;;5.38;;
49376;SDS011;35253;34.688;33.040;2023-09-12T11:45:51;14.75;;;5.18;;
49376;SDS011;35253;34.688;33.040;2023-09-12T11:48:19;15.82;;;5.32;;
49376;SDS011;35253;34.688;33.040;2023-09-12T11:50:55;14.18;;;5.32;;
49376;SDS011;35253;34.688;33.040;2023-09-12T11:53:23;17.60;;;4.90;;
49376;SDS011;35253;34.688;33.040;2023-09-12T11:55:56;16.98;;;5.03;;
49376;SDS011;35253;34.688;33.040;2023-09-12T11:58:24;18.02;;;6.07;;
49376;SDS011;35253;34.688;33.040;2023-09-12T12:00:50;16.17;;;4.53;;
49376;SDS011;35253;34.688;33.040;2023-09-12T12:03:18;17.65;;;5.55;;
49376;SDS011;35253;34.688;33.040;2023-09-12T12:05:47;15.98;;;5.70;;
49376;SDS011;35253;34.688;33.040;2023-09-12T12:08:13;18.20;;;5.85;;
49376;SDS011;35253;34.688;33.040;2023-09-12T12:10:40;25.95;;;8.77;;
49376;SDS011;35253;34.688;33.040;2023-09-12T12:13:27;15.77;;;5.15;;
49376;SDS011;35253;34.688;33.040;2023-09-12T12:15:53;20.35;;;7.70;;
49376;SDS011;35253;34.688;33.040;2023-09-12T12:18:18;14.88;;;4.57;;
49376;SDS011;35253;34.688;33.040;2023-09-12T12:20:44;22.42;;;5.55;;
49376;SDS011;35253;34.688;33.040;2023-09-12T12:23:10;30.30;;;8.68;;
49376;SDS011;35253;34.688;33.040;2023-09-12T12:25:36;24.73;;;8.25;;
49376;SDS011;35253;34.688;33.040;2023-09-12T12:28:02;17.90;;;8.20;;
49376;SDS011;35253;34.688;33.040;2023-09-12T12:30:32;15.85;;;4.88;;
49376;SDS011;35253;34.688;33.040;2023-09-12T12:33:00;14.10;;;5.80;;
49376;SDS011;35253;34.688;33.040;2023-09-12T12:35:31;15.80;;;4.40;;
49376;SDS011;35253;34.688;33.040;2023-09-12T12:37:57;22.90;;;5.18;;
49376;SDS011;35253;34.688;33.040;2023-09-12T12:40:22;14.80;;;4.03;;
49376;SDS011;35253;34.688;33.040;2023-09-12T12:42:48;17.63;;;4.45;;
49376;SDS011;35253;34.688;33.040;2023-09-12T12:45:18;10.70;;;4.22;;
49376;SDS011;35253;34.688;33.040;2023-09-12T12:47:45;21.98;;;8.90;;
49376;SDS011;35253;34.688;33.040;2023-09-12T12:50:12;26.40;;;6.18;;
49376;SDS011;35253;34.688;33.040;2023-09-12T12:52:38;21.38;;;5.40;;
49376;SDS011;35253;34.688;33.040;2023-09-12T12:55:05;12.23;;;3.80;;
49376;SDS011;35253;34.688;33.040;2023-09-12T12:57:35;8.68;;;3.08;;
49376;SDS011;35253;34.688;33.040;2023-09-12T13:00:01;13.50;;;6.40;;
49376;SDS011;35253;34.688;33.040;2023-09-12T13:02:28;12.43;;;4.80;;
49376;SDS011;35253;34.688;33.040;2023-09-12T13:04:54;10.02;;;3.72;;
49376;SDS011;35253;34.688;33.040;2023-09-12T13:07:19;12.05;;;4.50;;
49376;SDS011;35253;34.688;33.040;2023-09-12T13:09:45;12.32;;;3.97;;
49376;SDS011;35253;34.688;33.040;2023-09-12T13:12:13;10.55;;;5.50;;
49376;SDS011;35253;34.688;33.040;2023-09-12T13:14:39;7.80;;;4.05;;
49376;SDS011;35253;34.688;33.040;2023-09-12T13:17:05;14.80;;;5.90;;
49376;SDS011;35253;34.688;33.040;2023-09-12T13:19:31;12.00;;;3.83;;
49376;SDS011;35253;34.688;33.040;2023-09-12T13:21:56;10.02;;;4.60;;
49376;SDS011;35253;34.688;33.040;2023-09-12T13:24:22;20.70;;;8.02;;
49376;SDS011;35253;34.688;33.040;2023-09-12T13:26:48;15.43;;;9.65;;
49376;SDS011;35253;34.688;33.040;2023-09-12T13:29:14;22.00;;;10.15;;
49376;SDS011;35253;34.688;33.040;2023-09-12T13:31:39;16.52;;;7.50;;
49376;SDS011;35253;34.688;33.040;2023-09-12T13:34:05;14.45;;;7.65;;
49376;SDS011;35253;34.688;33.040;2023-09-12T13:36:31;20.30;;;8.93;;
49376;SDS011;35253;34.688;33.040;2023-09-12T13:38:56;24.52;;;8.57;;
49376;SDS011;35253;34.688;33.040;2023-09-12T13:41:22;12.38;;;6.00;;
49376;SDS011;35253;34.688;33.040;2023-09-12T13:43:48;15.82;;;4.40;;
49376;SDS011;35253;34.688;33.040;2023-09-12T13:46:13;25.95;;;7.05;;
49376;SDS011;35253;34.688;33.040;2023-09-12T13:48:41;13.25;;;5.05;;
49376;SDS011;35253;34.688;33.040;2023-09-12T13:51:07;27.10;;;9.57;;
49376;SDS011;35253;34.688;33.040;2023-09-12T13:53:32;15.10;;;5.97;;
49376;SDS011;35253;34.688;33.040;2023-09-12T13:55:58;17.88;;;3.78;;
49376;SDS011;35253;34.688;33.040;2023-09-12T13:58:26;12.35;;;4.13;;
49376;SDS011;35253;34.688;33.040;2023-09-12T14:00:51;16.40;;;4.90;;
49376;SDS011;35253;34.688;33.040;2023-09-12T14:03:17;10.63;;;4.03;;
49376;SDS011;35253;34.688;33.040;2023-09-12T14:05:43;26.42;;;8.93;;
49376;SDS011;35253;34.688;33.040;2023-09-12T14:08:08;18.45;;;7.90;;
49376;SDS011;35253;34.688;33.040;2023-09-12T14:10:35;16.55;;;8.65;;
49376;SDS011;35253;34.688;33.040;2023-09-12T14:13:00;12.93;;;4.07;;
49376;SDS011;35253;34.688;33.040;2023-09-12T14:15:26;14.48;;;6.30;;
49376;SDS011;35253;34.688;33.040;2023-09-12T14:17:52;19.70;;;6.07;;
49376;SDS011;35253;34.688;33.040;2023-09-12T14:20:17;13.65;;;5.68;;
49376;SDS011;35253;34.688;33.040;2023-09-12T14:22:43;11.82;;;5.07;;
49376;SDS011;35253;34.688;33.040;2023-09-12T14:25:10;29.25;;;9.07;;
49376;SDS011;35253;34.688;33.040;2023-09-12T14:27:42;24.88;;;9.40;;
49376;SDS011;35253;34.688;33.040;2023-09-12T14:30:09;17.23;;;4.97;;
49376;SDS011;35253;34.688;33.040;2023-09-12T14:32:35;18.13;;;7.30;;